createdAt,value
2022-09-23T00:02:16.834Z,2.00
2022-09-23T00:04:46.694Z,2.13
2022-09-23T00:07:16.351Z,3.60
2022-09-23T00:15:16.613Z,2.35
2022-09-23T00:17:45.232Z,1.38
2022-09-23T00:20:14.663Z,1.95
2022-09-23T00:22:44.643Z,1.60
2022-09-23T00:25:13.434Z,2.35
2022-09-23T00:27:41.963Z,1.77
2022-09-23T00:30:11.596Z,1.45
2022-09-23T00:32:40.519Z,1.52
2022-09-23T00:35:10.573Z,1.70
2022-09-23T00:37:38.922Z,2.67
2022-09-23T00:40:13.148Z,1.50
2022-09-23T00:42:47.688Z,1.40
2022-09-23T00:45:17.497Z,1.65
2022-09-23T00:47:48.650Z,1.35
2022-09-23T00:50:23.556Z,4.88
2022-09-23T00:52:56.841Z,1.92
2022-09-23T00:55:31.733Z,1.77
2022-09-23T00:58:03.892Z,1.75
2022-09-23T01:00:33.618Z,1.92
2022-09-23T01:03:02.412Z,1.52
2022-09-23T01:05:30.776Z,2.20
2022-09-23T01:08:02.300Z,1.40
2022-09-23T01:10:37.382Z,1.45
2022-09-23T01:13:16.039Z,4.30
2022-09-23T01:15:50.424Z,2.38
2022-09-23T01:18:33.568Z,3.55
2022-09-23T01:21:16.808Z,1.30
2022-09-23T01:24:09.725Z,1.30
2022-09-23T01:27:01.313Z,2.55
2022-09-23T01:30:08.038Z,3.70
2022-09-23T01:32:45.323Z,4.35
2022-09-23T01:35:25.010Z,1.73
2022-09-23T01:38:00.845Z,1.45
2022-09-23T01:40:34.995Z,1.30
2022-09-23T01:43:07.425Z,2.88
2022-09-23T01:45:39.909Z,1.15
2022-09-23T01:48:16.445Z,1.20
2022-09-23T01:50:59.917Z,2.88
2022-09-23T01:53:36.639Z,1.60
2022-09-23T01:56:08.904Z,1.20
2022-09-23T01:58:43.004Z,2.83
2022-09-23T02:01:17.416Z,1.23
2022-09-23T02:03:55.197Z,1.60
2022-09-23T02:06:28.303Z,2.47
2022-09-23T02:09:00.589Z,1.50
2022-09-23T02:11:30.022Z,2.03
2022-09-23T02:14:02.733Z,1.63
2022-09-23T02:16:34.795Z,1.70
2022-09-23T02:19:09.034Z,1.30
2022-09-23T02:21:42.051Z,2.47
2022-09-23T02:24:13.558Z,1.10
2022-09-23T02:26:47.913Z,3.20
2022-09-23T02:29:22.573Z,1.90
2022-09-23T02:31:58.430Z,1.37
2022-09-23T02:34:42.787Z,1.48
2022-09-23T02:37:23.701Z,1.20
2022-09-23T02:39:59.828Z,1.85
2022-09-23T02:42:34.670Z,1.60
2022-09-23T02:45:03.256Z,1.42
2022-09-23T02:47:34.832Z,1.50
2022-09-23T02:50:05.012Z,1.38
2022-09-23T02:52:33.955Z,4.82
2022-09-23T02:55:02.675Z,1.30
2022-09-23T02:57:31.033Z,1.20
2022-09-23T02:59:59.416Z,1.45
2022-09-23T03:02:51.304Z,1.30
2022-09-23T03:05:25.726Z,1.20
2022-09-23T03:08:08.806Z,1.60
2022-09-23T03:10:43.792Z,2.58
2022-09-23T03:13:19.145Z,1.35
2022-09-23T03:15:57.214Z,1.35
2022-09-23T03:18:34.713Z,1.70
2022-09-23T03:21:09.206Z,2.17
2022-09-23T03:23:40.765Z,1.67
2022-09-23T03:26:13.445Z,1.50
2022-09-23T03:28:44.840Z,1.83
2022-09-23T03:31:14.202Z,3.03
2022-09-23T03:33:48.126Z,2.58
2022-09-23T03:36:41.004Z,1.60
2022-09-23T03:39:13.662Z,3.42
2022-09-23T03:41:48.328Z,1.45
2022-09-23T03:44:17.531Z,2.93
2022-09-23T03:46:49.687Z,2.15
2022-09-23T03:49:20.444Z,1.75
2022-09-23T03:51:50.140Z,2.20
2022-09-23T03:54:20.257Z,1.35
2022-09-23T03:56:48.929Z,1.90
2022-09-23T03:59:17.587Z,1.95
2022-09-23T04:01:46.879Z,1.30
2022-09-23T04:04:15.161Z,2.22
2022-09-23T04:06:43.472Z,1.98
2022-09-23T04:09:13.441Z,1.58
2022-09-23T04:11:41.815Z,1.35
2022-09-23T04:14:12.022Z,1.30
2022-09-23T04:16:40.428Z,1.90
2022-09-23T04:19:11.722Z,1.50
2022-09-23T04:21:40.492Z,1.70
2022-09-23T04:24:09.280Z,1.50
2022-09-23T04:26:39.941Z,1.55
2022-09-23T04:29:08.765Z,2.40
2022-09-23T04:31:37.553Z,1.92
2022-09-23T04:34:05.950Z,2.50
2022-09-23T04:36:34.884Z,2.13
2022-09-23T04:39:05.626Z,1.45
2022-09-23T04:41:34.103Z,2.75
2022-09-23T04:44:03.943Z,1.50
2022-09-23T04:46:32.408Z,1.95
2022-09-23T04:49:00.863Z,1.75
2022-09-23T04:51:29.268Z,2.10
2022-09-23T04:53:57.624Z,2.45
2022-09-23T04:56:29.241Z,1.60
2022-09-23T04:58:58.285Z,4.35
2022-09-23T05:01:30.433Z,1.30
2022-09-23T05:04:02.286Z,2.90
2022-09-23T05:06:31.738Z,2.03
2022-09-23T05:09:00.486Z,1.50
2022-09-23T05:11:31.270Z,1.65
2022-09-23T05:13:59.669Z,1.63
2022-09-23T05:16:29.650Z,3.38
2022-09-23T05:18:58.545Z,1.83
2022-09-23T05:21:28.906Z,2.13
2022-09-23T05:24:00.302Z,2.00
2022-09-23T05:26:31.214Z,4.65
2022-09-23T05:29:00.749Z,1.33
2022-09-23T05:31:31.501Z,1.50
2022-09-23T05:34:01.611Z,3.22
2022-09-23T05:36:37.540Z,1.48
2022-09-23T05:39:07.633Z,3.83
2022-09-23T05:41:36.922Z,1.40
2022-09-23T05:44:05.450Z,1.58
2022-09-23T05:46:35.540Z,1.40
2022-09-23T05:49:05.883Z,1.67
2022-09-23T05:51:35.643Z,2.15
2022-09-23T05:54:05.417Z,3.15
2022-09-23T05:56:35.459Z,2.38
2022-09-23T05:59:07.807Z,2.20
2022-09-23T06:01:38.595Z,2.65
2022-09-23T06:04:08.690Z,1.65
2022-09-23T06:06:38.762Z,1.10
2022-09-23T06:09:08.514Z,1.45
2022-09-23T06:11:37.371Z,1.55
2022-09-23T06:14:05.931Z,2.05
2022-09-23T06:16:37.247Z,1.55
2022-09-23T06:19:07.072Z,1.30
2022-09-23T06:21:37.214Z,2.25
2022-09-23T06:24:06.882Z,3.38
2022-09-23T06:26:37.478Z,1.55
2022-09-23T06:29:10.529Z,2.17
2022-09-23T06:31:41.518Z,1.45
2022-09-23T06:34:13.111Z,1.50
2022-09-23T06:36:44.922Z,1.35
2022-09-23T06:39:15.790Z,1.58
2022-09-23T06:41:44.634Z,1.35
2022-09-23T06:44:16.081Z,3.80
2022-09-23T06:46:45.780Z,1.50
2022-09-23T06:49:14.234Z,1.33
2022-09-23T06:51:42.665Z,1.52
2022-09-23T06:54:11.123Z,1.10
2022-09-23T06:56:40.092Z,1.20
2022-09-23T06:59:10.814Z,1.58
2022-09-23T07:01:39.675Z,1.20
2022-09-23T07:04:10.178Z,1.70
2022-09-23T07:06:38.533Z,2.28
2022-09-23T07:09:08.347Z,1.30
2022-09-23T07:11:36.970Z,2.58
2022-09-23T07:14:05.483Z,1.70
2022-09-23T07:16:33.802Z,1.48
2022-09-23T07:19:02.443Z,1.70
2022-09-23T07:21:32.461Z,1.63
2022-09-23T07:24:00.890Z,3.80
2022-09-23T07:26:29.443Z,1.58
2022-09-23T07:29:04.628Z,2.78
2022-09-23T07:31:39.283Z,2.45
2022-09-23T07:36:40.561Z,2.67
2022-09-23T07:39:09.789Z,2.45
2022-09-23T07:41:38.183Z,1.92
2022-09-23T07:44:06.526Z,1.85
2022-09-23T07:46:36.937Z,3.38
2022-09-23T07:49:06.581Z,2.90
2022-09-23T07:51:37.225Z,2.75
2022-09-23T07:54:09.119Z,1.85
2022-09-23T07:56:38.942Z,3.47
2022-09-23T07:59:09.300Z,4.53
2022-09-23T08:01:40.204Z,2.88
2022-09-23T08:04:11.892Z,1.77
2022-09-23T08:06:42.253Z,3.28
2022-09-23T08:09:12.623Z,2.88
2022-09-23T08:11:41.781Z,1.65
2022-09-23T08:14:10.661Z,1.70
2022-09-23T08:16:40.029Z,2.03
2022-09-23T08:19:08.656Z,2.97
2022-09-23T08:21:37.605Z,1.70
2022-09-23T08:24:06.257Z,2.30
2022-09-23T08:26:36.640Z,2.65
2022-09-23T08:29:06.005Z,2.72
2022-09-23T08:31:34.476Z,2.10
2022-09-23T08:34:02.862Z,2.83
2022-09-23T08:36:32.212Z,3.78
2022-09-23T08:39:00.627Z,3.13
2022-09-23T08:41:39.904Z,2.70
2022-09-23T08:44:14.344Z,2.85
2022-09-23T08:46:49.073Z,2.70
2022-09-23T08:49:26.892Z,2.20
2022-09-23T08:51:55.926Z,2.13
2022-09-23T08:54:30.721Z,2.78
2022-09-23T08:57:03.016Z,2.20
2022-09-23T08:59:41.076Z,1.55
2022-09-23T09:02:18.893Z,2.25
2022-09-23T09:04:53.543Z,2.28
2022-09-23T09:07:37.628Z,1.80
2022-09-23T09:10:16.556Z,3.20
2022-09-23T09:12:48.588Z,2.83
2022-09-23T09:15:20.964Z,2.35
2022-09-23T09:18:01.144Z,2.47
2022-09-23T09:20:54.769Z,4.07
2022-09-23T09:23:24.711Z,3.65
2022-09-23T09:25:55.375Z,3.92
2022-09-23T09:28:27.786Z,2.15
2022-09-23T09:30:58.688Z,3.30
2022-09-23T09:33:32.227Z,2.55
2022-09-23T09:36:30.953Z,2.28
2022-09-23T09:38:59.864Z,3.88
2022-09-23T09:41:31.365Z,3.80
2022-09-23T09:44:08.575Z,2.17
2022-09-23T09:46:50.409Z,1.98
2022-09-23T09:49:28.453Z,3.45
2022-09-23T09:52:22.500Z,1.60
2022-09-23T09:54:51.947Z,3.08
2022-09-23T09:57:40.099Z,1.60
2022-09-23T10:00:35.799Z,3.40
2022-09-23T10:05:36.257Z,2.28
2022-09-23T10:08:24.606Z,1.92
2022-09-23T10:10:54.797Z,2.40
2022-09-23T10:13:24.902Z,2.40
2022-09-23T10:15:55.920Z,1.42
2022-09-23T10:18:29.517Z,1.40
2022-09-23T10:21:09.428Z,1.33
2022-09-23T10:23:42.214Z,4.20
2022-09-23T10:26:12.141Z,1.90
2022-09-23T10:28:45.329Z,3.80
2022-09-23T10:31:18.123Z,1.83
2022-09-23T10:33:49.914Z,2.33
2022-09-23T10:36:18.869Z,1.95
2022-09-23T10:38:50.300Z,2.10
2022-09-23T10:41:47.418Z,2.33
2022-09-23T10:44:52.377Z,2.45
2022-09-23T10:47:34.438Z,2.92
2022-09-23T10:50:23.030Z,2.05
2022-09-23T10:53:08.263Z,2.83
2022-09-23T10:55:48.465Z,1.90
2022-09-23T10:58:36.187Z,2.10
2022-09-23T11:01:20.131Z,1.90
2022-09-23T11:04:10.229Z,2.50
2022-09-23T11:06:51.306Z,4.55
2022-09-23T11:09:32.772Z,2.53
2022-09-23T11:12:13.229Z,3.55
2022-09-23T11:15:01.617Z,2.55
2022-09-23T11:17:53.798Z,1.50
2022-09-23T11:20:35.979Z,1.90
2022-09-23T11:23:35.069Z,2.58
2022-09-23T11:26:14.117Z,2.30
2022-09-23T11:29:26.239Z,2.25
2022-09-23T11:32:09.026Z,3.25
2022-09-23T11:34:59.270Z,3.35
2022-09-23T11:37:33.026Z,3.38
2022-09-23T11:40:07.310Z,3.35
2022-09-23T11:42:41.480Z,3.88
2022-09-23T11:45:19.658Z,3.20
2022-09-23T11:47:54.520Z,1.70
2022-09-23T11:53:02.047Z,3.30
2022-09-23T11:55:34.903Z,4.47
2022-09-23T11:58:21.850Z,2.70
2022-09-23T12:01:01.457Z,3.85
2022-09-23T12:03:44.983Z,3.00
2022-09-23T12:06:18.201Z,2.55
2022-09-23T12:08:52.988Z,1.98
2022-09-23T12:11:30.057Z,1.98
2022-09-23T12:14:13.700Z,3.95
2022-09-23T12:17:03.842Z,2.55
2022-09-23T12:20:03.866Z,2.08
2022-09-23T12:22:48.176Z,1.98
2022-09-23T12:25:46.353Z,1.83
2022-09-23T12:28:19.361Z,2.10
2022-09-23T12:30:50.022Z,3.63
2022-09-23T12:33:24.772Z,2.45
2022-09-23T12:35:54.883Z,2.80
2022-09-23T12:38:26.590Z,3.40
2022-09-23T12:40:57.490Z,2.20
2022-09-23T12:43:31.148Z,2.65
2022-09-23T12:46:20.524Z,3.00
2022-09-23T12:49:00.413Z,2.72
2022-09-23T12:51:30.048Z,2.25
2022-09-23T12:54:23.275Z,2.33
2022-09-23T12:57:04.397Z,2.03
2022-09-23T12:59:48.681Z,2.30
2022-09-23T13:02:36.167Z,3.42
2022-09-23T13:05:31.858Z,3.33
2022-09-23T13:08:04.172Z,2.88
2022-09-23T13:10:35.067Z,3.15
2022-09-23T13:13:07.473Z,2.60
2022-09-23T13:15:37.424Z,3.47
2022-09-23T13:18:26.211Z,2.10
2022-09-23T13:20:56.986Z,2.17
2022-09-23T13:23:26.705Z,1.45
2022-09-23T13:25:58.374Z,3.05
2022-09-23T13:28:32.633Z,2.92
2022-09-23T13:31:05.417Z,1.37
2022-09-23T13:33:40.926Z,2.53
2022-09-23T13:36:13.276Z,2.67
2022-09-23T13:38:42.103Z,1.58
2022-09-23T13:41:16.152Z,2.13
2022-09-23T13:43:48.940Z,2.60
2022-09-23T13:46:20.050Z,1.60
2022-09-23T13:48:51.789Z,3.75
2022-09-23T13:51:24.674Z,3.65
2022-09-23T13:53:55.290Z,1.58
2022-09-23T13:56:25.055Z,2.42
2022-09-23T13:58:56.593Z,2.33
2022-09-23T14:01:32.957Z,3.70
2022-09-23T14:04:02.111Z,1.55
2022-09-23T14:06:31.925Z,3.03
2022-09-23T14:09:02.326Z,2.97
2022-09-23T14:11:34.192Z,2.35
2022-09-23T14:14:07.748Z,2.90
2022-09-23T14:16:40.250Z,4.15
2022-09-23T14:19:16.718Z,2.65
2022-09-23T14:21:49.287Z,2.28
2022-09-23T14:24:19.741Z,3.58
2022-09-23T14:26:50.800Z,3.42
2022-09-23T14:29:24.524Z,2.97
2022-09-23T14:31:58.229Z,2.33
2022-09-23T14:34:41.330Z,2.28
2022-09-23T14:37:41.169Z,2.05
2022-09-23T14:40:14.512Z,2.83
2022-09-23T14:42:46.312Z,2.90
2022-09-23T14:45:21.489Z,2.13
2022-09-23T14:47:52.346Z,2.90
2022-09-23T14:50:39.613Z,2.55
2022-09-23T14:53:34.197Z,1.65
2022-09-23T14:56:13.394Z,2.25
2022-09-23T14:58:49.491Z,4.35
2022-09-23T15:01:39.609Z,5.68
2022-09-23T15:04:29.475Z,2.33
2022-09-23T15:07:01.473Z,3.28
2022-09-23T15:09:33.825Z,2.72
2022-09-23T15:12:06.469Z,2.95
2022-09-23T15:14:39.720Z,3.35
2022-09-23T15:17:21.441Z,3.10
2022-09-23T15:19:52.908Z,2.15
2022-09-23T15:22:21.731Z,4.43
2022-09-23T15:24:52.582Z,6.53
2022-09-23T15:27:29.333Z,17.92
2022-09-23T15:30:12.587Z,4.85
2022-09-23T15:32:45.277Z,5.95
2022-09-23T15:35:16.394Z,2.83
2022-09-23T15:37:45.907Z,2.67
2022-09-23T15:40:20.782Z,2.88
2022-09-23T15:42:51.481Z,5.22
2022-09-23T15:45:22.490Z,3.50
2022-09-23T15:47:52.323Z,2.80
2022-09-23T15:50:21.307Z,2.85
2022-09-23T15:52:49.650Z,6.82
2022-09-23T15:55:23.382Z,4.18
2022-09-23T15:57:52.497Z,3.92
2022-09-23T16:00:21.477Z,4.68
2022-09-23T16:02:54.051Z,3.00
2022-09-23T16:05:27.101Z,2.90
2022-09-23T16:07:55.435Z,4.22
2022-09-23T16:10:24.104Z,4.53
2022-09-23T16:12:54.605Z,2.90
2022-09-23T16:15:24.762Z,3.15
2022-09-23T16:17:55.289Z,3.15
2022-09-23T16:20:24.122Z,5.00
2022-09-23T16:22:57.414Z,2.58
2022-09-23T16:25:28.103Z,3.65
2022-09-23T16:27:56.608Z,4.75
2022-09-23T16:30:25.987Z,3.53
2022-09-23T16:32:56.090Z,5.47
2022-09-23T16:35:26.827Z,2.55
2022-09-23T16:37:55.866Z,2.70
2022-09-23T16:40:27.561Z,4.18
2022-09-23T16:42:58.265Z,2.75
2022-09-23T16:45:26.662Z,3.97
2022-09-23T16:47:56.393Z,3.25
2022-09-23T16:50:25.306Z,4.47
2022-09-23T16:52:56.103Z,4.28
2022-09-23T16:55:27.127Z,3.42
2022-09-23T16:57:55.986Z,2.65
2022-09-23T17:00:42.363Z,4.82
2022-09-23T17:03:31.410Z,4.05
2022-09-23T17:06:03.453Z,3.03
2022-09-23T17:08:34.888Z,2.70
2022-09-23T17:11:03.429Z,3.17
2022-09-23T17:13:32.399Z,5.43
2022-09-23T17:16:01.641Z,2.92
2022-09-23T17:18:31.419Z,3.72
2022-09-23T17:21:01.491Z,2.65
2022-09-23T17:23:31.575Z,3.28
2022-09-23T17:26:00.471Z,3.58
2022-09-23T17:28:29.481Z,5.32
2022-09-23T17:30:59.023Z,3.58
2022-09-23T17:33:29.021Z,3.67
2022-09-23T17:36:00.174Z,5.65
2022-09-23T17:38:29.580Z,5.95
2022-09-23T17:41:01.210Z,4.53
2022-09-23T17:43:31.344Z,4.07
2022-09-23T17:46:05.140Z,3.72
2022-09-23T17:48:35.001Z,4.93
2022-09-23T17:51:07.304Z,3.35
2022-09-23T17:53:38.380Z,4.72
2022-09-23T17:56:14.478Z,3.85
2022-09-23T17:58:43.602Z,7.07
2022-09-23T18:01:13.536Z,5.07
2022-09-23T18:03:43.818Z,6.35
2022-09-23T18:06:15.390Z,4.60
2022-09-23T18:08:45.399Z,5.72
2022-09-23T18:11:19.245Z,4.47
2022-09-23T18:13:50.662Z,4.53
2022-09-23T18:16:19.975Z,5.93
2022-09-23T18:18:52.561Z,7.90
2022-09-23T18:21:23.330Z,6.60
2022-09-23T18:23:51.866Z,4.30
2022-09-23T18:26:21.884Z,5.85
2022-09-23T18:28:52.722Z,5.57
2022-09-23T18:31:23.001Z,7.57
2022-09-23T18:33:52.341Z,6.65
2022-09-23T18:36:24.480Z,5.30
2022-09-23T18:38:53.199Z,8.25
2022-09-23T18:41:21.729Z,7.25
2022-09-23T18:43:50.295Z,5.65
2022-09-23T18:46:20.299Z,7.95
2022-09-23T18:49:06.886Z,6.03
2022-09-23T18:51:38.622Z,6.85
2022-09-23T18:54:08.297Z,8.25
2022-09-23T18:56:42.039Z,8.75
2022-09-23T18:59:14.369Z,7.38
2022-09-23T19:01:43.096Z,7.70
2022-09-23T19:04:11.591Z,8.70
2022-09-23T19:06:41.436Z,6.22
2022-09-23T19:09:10.110Z,6.25
2022-09-23T19:11:39.105Z,6.65
2022-09-23T19:14:11.192Z,5.68
2022-09-23T19:16:40.882Z,6.85
2022-09-23T19:19:09.930Z,6.40
2022-09-23T19:21:38.332Z,8.88
2022-09-23T19:24:09.077Z,6.25
2022-09-23T19:26:39.735Z,7.05
2022-09-23T19:29:09.653Z,6.18
2022-09-23T19:31:40.085Z,7.07
2022-09-23T19:34:12.526Z,6.63
2022-09-23T19:36:43.149Z,9.25
2022-09-23T19:39:17.385Z,6.15
2022-09-23T19:41:46.560Z,7.60
2022-09-23T19:44:16.400Z,8.68
2022-09-23T19:46:50.678Z,6.68
2022-09-23T19:49:23.833Z,9.48
2022-09-23T19:51:52.904Z,6.05
2022-09-23T19:54:22.584Z,7.50
2022-09-23T19:56:51.240Z,9.85
2022-09-23T19:59:19.776Z,8.32
2022-09-23T20:01:48.800Z,7.22
2022-09-23T20:04:17.742Z,9.02
2022-09-23T20:06:49.594Z,9.23
2022-09-23T20:09:18.057Z,7.15
2022-09-23T20:11:47.850Z,10.07
2022-09-23T20:14:19.332Z,8.30
2022-09-23T20:16:48.349Z,8.23
2022-09-23T20:19:16.815Z,6.55
2022-09-23T20:21:45.159Z,8.88
2022-09-23T20:24:13.601Z,8.18
2022-09-23T20:26:59.684Z,9.27
2022-09-23T20:29:29.712Z,7.78
2022-09-23T20:31:58.720Z,10.02
2022-09-23T20:34:29.793Z,8.82
2022-09-23T20:36:59.145Z,8.77
2022-09-23T20:39:28.021Z,8.30
2022-09-23T20:41:56.583Z,7.05
2022-09-23T20:44:24.984Z,7.88
2022-09-23T20:46:55.032Z,8.43
2022-09-23T20:49:23.592Z,9.00
2022-09-23T20:51:52.031Z,8.02
2022-09-23T20:54:20.918Z,7.57
2022-09-23T20:56:49.362Z,8.10
2022-09-23T20:59:17.970Z,8.65
2022-09-23T21:01:47.502Z,7.78
2022-09-23T21:04:17.744Z,7.43
2022-09-23T21:06:46.417Z,7.38
2022-09-23T21:09:14.734Z,6.90
2022-09-23T21:11:43.386Z,9.57
2022-09-23T21:14:11.715Z,8.98
2022-09-23T21:16:40.285Z,9.75
2022-09-23T21:19:08.936Z,6.40
2022-09-23T21:21:39.149Z,6.70
2022-09-23T21:24:36.073Z,6.90
2022-09-23T21:26:56.141Z,7.82
2022-09-23T21:29:24.498Z,8.10
2022-09-23T21:31:53.343Z,5.90
2022-09-23T21:34:21.700Z,8.35
2022-09-23T21:36:51.443Z,6.72
2022-09-23T21:39:20.254Z,7.40
2022-09-23T21:41:49.728Z,7.78
2022-09-23T21:44:18.143Z,8.18
2022-09-23T21:46:46.743Z,7.65
2022-09-23T21:49:15.418Z,6.28
2022-09-23T21:51:43.844Z,6.15
2022-09-23T21:54:15.517Z,6.45
2022-09-23T21:56:44.989Z,7.35
2022-09-23T21:59:13.529Z,8.32
2022-09-23T22:01:44.973Z,7.68
2022-09-23T22:04:17.189Z,7.28
2022-09-23T22:06:46.848Z,7.25
2022-09-23T22:09:18.915Z,7.60
2022-09-23T22:12:05.357Z,9.32
2022-09-23T22:14:33.882Z,8.13
2022-09-23T22:17:04.811Z,7.97
2022-09-23T22:19:40.234Z,6.25
2022-09-23T22:22:13.580Z,7.68
2022-09-23T22:24:44.155Z,7.18
2022-09-23T22:27:14.425Z,6.72
2022-09-23T22:30:00.398Z,8.07
2022-09-23T22:35:11.759Z,10.40
2022-09-23T22:37:40.403Z,7.70
2022-09-23T22:40:14.167Z,7.60
2022-09-23T22:42:43.635Z,8.10
2022-09-23T22:45:13.111Z,9.13
2022-09-23T22:47:44.958Z,8.60
2022-09-23T22:50:14.847Z,7.05
2022-09-23T22:52:43.686Z,11.35
2022-09-23T22:55:13.486Z,10.30
2022-09-23T22:57:41.968Z,8.27
2022-09-23T23:00:12.022Z,7.53
2022-09-23T23:02:42.185Z,8.35
2022-09-23T23:05:10.888Z,9.20
2022-09-23T23:07:39.410Z,10.43
2022-09-23T23:10:09.999Z,13.23
2022-09-23T23:12:40.282Z,10.23
2022-09-23T23:15:12.630Z,11.57
2022-09-23T23:17:43.332Z,10.57
2022-09-23T23:20:11.752Z,12.00
2022-09-23T23:22:40.106Z,10.65
2022-09-23T23:25:09.612Z,10.07
2022-09-23T23:27:39.362Z,10.30
2022-09-23T23:30:09.302Z,10.45
2022-09-23T23:32:38.111Z,9.48
2022-09-23T23:35:07.265Z,9.35
2022-09-23T23:37:35.782Z,9.93
2022-09-23T23:40:04.523Z,9.52
2022-09-23T23:42:34.470Z,9.35
2022-09-23T23:45:04.569Z,9.43
2022-09-23T23:47:33.085Z,9.23
2022-09-23T23:50:04.336Z,10.75
2022-09-23T23:52:32.880Z,10.05
2022-09-23T23:55:01.206Z,8.38
2022-09-23T23:57:29.564Z,9.68
2022-09-23T23:59:58.627Z,9.38
